MV Iyanough — WDD4527 — position and weather

sailwx.info

Track history (hours):
 
Tides and Currents Weather Stations Pressure Air Temp Water Temp Dewpoint Dewpoint Depression Visibility Wind Speed Wind Dir Waves Ship Positions

MV Iyanough

Owner: WOODS HOLE, MARTHA'S VINEYARD AND NANTUCKET STEAMSHIP AUTHORITY, WOODS HOLE, MA. More information available from US FCC via Universal Licensing System and Coast Guard Vessel Documentation Center.

Last reported at 2017-Dec-02 21:03 UTC. Time now 2017-Dec-13 16:53 UTC.
Position N 41°30' W 070°13'.
Warning: this ship's position is 10 days out of date.

Length 47 m; draft 2.4 m.

Type: Ship. MMSI: 367145870.

Date/timePositionNaut miles runAvg speedWind from/ knotsBaromVisibWave heightAir tempDewpointWater temp
2017-Dec-02 21:03N 41°30' W 070°13'9 0.6
2017-Dec-02 03:57N 41°39' W 070°17'0 0.0
2017-Dec-02 03:30N 41°39' W 070°17'0 0.0
2017-Dec-02 03:00N 41°39' W 070°17'0 0.0
2017-Dec-02 02:30N 41°39' W 070°17'0 0.0
2017-Dec-02 02:00N 41°39' W 070°17'0 0.0
2017-Dec-02 01:30N 41°39' W 070°17'0 0.0
2017-Dec-02 01:00N 41°39' W 070°17'0 0.0
2017-Dec-02 00:30N 41°39' W 070°17'5 9.1
2017-Dec-02 00:01N 41°34' W 070°16'1 0.8
2017-Dec-01 22:26N 41°33' W 070°16'613.8
2017-Dec-01 22:00N 41°39' W 070°17'0 0.0
2017-Dec-01 21:30N 41°39' W 070°17'6 2.7
2017-Dec-01 19:24N 41°33' W 070°16'614.3
2017-Dec-01 19:00N 41°39' W 070°17'0 0.0
2017-Dec-01 18:30N 41°39' W 070°17'5 2.2
2017-Dec-01 16:19N 41°34' W 070°17'516.1
2017-Dec-01 16:00N 41°39' W 070°17'0 0.0
2017-Dec-01 15:30N 41°39' W 070°17'6 3.0
2017-Dec-01 13:38N 41°33' W 070°16'429.9
2017-Dec-01 13:30N 41°37' W 070°17'2 3.9
2017-Dec-01 13:00N 41°39' W 070°17'0 0.0
2017-Dec-01 12:30N 41°39' W 070°17'0 0.0
2017-Dec-01 12:01N 41°39' W 070°17'0 0.0
2017-Dec-01 11:30N 41°39' W 070°17'1 0.0
2017-Nov-29 13:24N 41°38' W 070°17'  
Track history (hours):
 
Tides and Currents Weather Stations Pressure Air Temp Water Temp Dewpoint Dewpoint Depression Visibility Wind Speed Wind Dir Waves Ship Positions

MV Iyanough

Owner: WOODS HOLE, MARTHA'S VINEYARD AND NANTUCKET STEAMSHIP AUTHORITY, WOODS HOLE, MA. More information available from US FCC via Universal Licensing System and Coast Guard Vessel Documentation Center.

Last reported at 2017-Dec-02 21:03 UTC. Time now 2017-Dec-13 16:53 UTC.
Position N 41°30' W 070°13'.
Warning: this ship's position is 10 days out of date.

Length 47 m; draft 2.4 m.

Type: Ship. MMSI: 367145870.

Date/timePositionNaut miles runAvg speedWind from/ knotsBaromVisibWave heightAir tempDewpointWater temp
2017-Dec-02 21:03N 41°30' W 070°13'9 0.6
2017-Dec-02 03:57N 41°39' W 070°17'0 0.0
2017-Dec-02 03:30N 41°39' W 070°17'0 0.0
2017-Dec-02 03:00N 41°39' W 070°17'0 0.0
2017-Dec-02 02:30N 41°39' W 070°17'0 0.0
2017-Dec-02 02:00N 41°39' W 070°17'0 0.0
2017-Dec-02 01:30N 41°39' W 070°17'0 0.0
2017-Dec-02 01:00N 41°39' W 070°17'0 0.0
2017-Dec-02 00:30N 41°39' W 070°17'5 9.1
2017-Dec-02 00:01N 41°34' W 070°16'1 0.8
2017-Dec-01 22:26N 41°33' W 070°16'613.8
2017-Dec-01 22:00N 41°39' W 070°17'0 0.0
2017-Dec-01 21:30N 41°39' W 070°17'6 2.7
2017-Dec-01 19:24N 41°33' W 070°16'614.3
2017-Dec-01 19:00N 41°39' W 070°17'0 0.0
2017-Dec-01 18:30N 41°39' W 070°17'5 2.2
2017-Dec-01 16:19N 41°34' W 070°17'516.1
2017-Dec-01 16:00N 41°39' W 070°17'0 0.0
2017-Dec-01 15:30N 41°39' W 070°17'6 3.0
2017-Dec-01 13:38N 41°33' W 070°16'429.9
2017-Dec-01 13:30N 41°37' W 070°17'2 3.9
2017-Dec-01 13:00N 41°39' W 070°17'0 0.0
2017-Dec-01 12:30N 41°39' W 070°17'0 0.0
2017-Dec-01 12:01N 41°39' W 070°17'0 0.0
2017-Dec-01 11:30N 41°39' W 070°17'1 0.0
2017-Nov-29 13:24N 41°38' W 070°17'  

Dump ship's entire track history